Time;durP1;ratioP1;P1;durP2;ratioP2;P2;SDS_P1;SDS_P2;PMS_P1;PMS_P2;Temp;Humidity;BMP_temperature;BMP_pressure;BME280_temperature;BME280_humidity;BME280_pressure;Samples;Min_cycle;Max_cycle;Signal;HPM_P1;HPM_P2
2023/01/24 00:00:11;;;;;;;16.60;8.32;;;;;;;1.69;50.24;104046.78;4984715;28;20376;-76
2023/01/24 00:02:36;;;;;;;15.75;7.38;;;;;;;1.78;49.92;104039.50;4979912;28;20031;-76
2023/01/24 00:05:03;;;;;;;17.58;7.55;;;;;;;1.65;50.17;104039.72;4987443;28;20588;-78
2023/01/24 00:07:29;;;;;;;15.00;7.22;;;;;;;1.71;50.29;104034.84;4981678;28;20049;-75
2023/01/24 00:09:54;;;;;;;18.98;8.95;;;;;;;1.72;50.24;104036.63;4983959;28;20105;-78
2023/01/24 00:12:20;;;;;;;20.27;8.27;;;;;;;1.71;50.32;104037.44;4979463;28;20056;-75
2023/01/24 00:14:45;;;;;;;14.63;7.43;;;;;;;1.73;50.51;104034.13;4984213;28;20504;-76
2023/01/24 00:17:10;;;;;;;12.70;6.97;;;;;;;1.76;50.43;104028.22;4982376;28;20049;-75
2023/01/24 00:19:36;;;;;;;17.17;8.18;;;;;;;1.68;50.28;104032.13;4980213;28;20559;-76
2023/01/24 00:22:03;;;;;;;17.83;7.50;;;;;;;1.63;50.84;104020.69;4980215;28;20941;-76
2023/01/24 00:24:29;;;;;;;16.55;7.97;;;;;;;1.58;50.72;104022.19;4982397;28;20030;-76
2023/01/24 00:26:55;;;;;;;16.85;8.50;;;;;;;1.67;50.39;104022.63;4984417;28;20043;-76
2023/01/24 00:29:20;;;;;;;16.33;8.55;;;;;;;1.68;51.02;104020.09;4984827;28;20037;-76
2023/01/24 00:31:46;;;;;;;19.35;9.00;;;;;;;1.69;50.57;104026.16;4982042;28;20034;-76
2023/01/24 00:34:11;;;;;;;15.93;7.85;;;;;;;1.72;50.84;104018.56;4964486;28;20073;-76
2023/01/24 00:36:37;;;;;;;18.98;8.15;;;;;;;1.69;51.21;104011.56;4981026;28;20034;-76
2023/01/24 00:39:03;;;;;;;18.17;8.40;;;;;;;1.68;51.08;104009.78;4981546;28;20632;-74
2023/01/24 00:41:28;;;;;;;20.55;9.32;;;;;;;1.73;50.86;104013.47;4981411;28;20909;-76
2023/01/24 00:43:54;;;;;;;17.52;8.30;;;;;;;1.72;50.78;104015.97;4983476;28;20046;-76
2023/01/24 00:46:19;;;;;;;19.48;9.18;;;;;;;1.72;50.68;104010.81;4981813;28;20042;-76
2023/01/24 00:48:47;;;;;;;21.90;9.27;;;;;;;1.66;50.98;104005.38;4981779;28;20030;-75
2023/01/24 00:51:13;;;;;;;19.55;9.70;;;;;;;1.62;50.89;104008.63;4983495;28;20547;-76
2023/01/24 00:53:38;;;;;;;19.98;9.52;;;;;;;1.65;51.14;104011.34;4982139;28;20515;-75
2023/01/24 00:56:04;;;;;;;19.27;9.35;;;;;;;1.61;51.02;104000.00;4983200;28;20026;-76
2023/01/24 00:58:32;;;;;;;22.27;9.13;;;;;;;1.67;50.86;104005.44;4981775;28;20572;-76
2023/01/24 01:01:00;;;;;;;21.02;9.20;;;;;;;1.69;51.02;104000.38;4982018;28;20038;-75
2023/01/24 01:03:26;;;;;;;24.58;9.38;;;;;;;1.75;50.53;103998.06;4979750;28;20034;-76
2023/01/24 01:06:02;;;;;;;20.55;9.88;;;;;;;1.69;50.70;103995.22;4985073;28;20404;-76
2023/01/24 01:08:28;;;;;;;19.25;9.70;;;;;;;1.62;51.17;103988.00;4981468;28;20493;-76
2023/01/24 01:10:53;;;;;;;18.08;9.52;;;;;;;1.64;50.96;103997.56;4983073;28;20026;-76
2023/01/24 01:13:19;;;;;;;20.17;9.80;;;;;;;1.61;51.01;103991.38;4981950;28;20101;-77
2023/01/24 01:15:44;;;;;;;17.38;8.57;;;;;;;1.65;51.29;103995.88;4980272;28;20072;-75
2023/01/24 01:18:10;;;;;;;17.67;8.90;;;;;;;1.55;51.43;103998.81;4980605;28;20431;-77
2023/01/24 01:20:35;;;;;;;21.73;10.40;;;;;;;1.59;51.43;103993.00;4984111;28;20124;-76
2023/01/24 01:23:01;;;;;;;24.15;9.93;;;;;;;1.61;51.61;103993.97;4982354;28;20044;-77
2023/01/24 01:25:26;;;;;;;25.63;9.50;;;;;;;1.65;51.46;103994.19;4982322;28;20128;-77
2023/01/24 01:27:52;;;;;;;20.35;10.50;;;;;;;1.69;51.21;104000.38;4966865;28;21679;-76
2023/01/24 01:30:18;;;;;;;20.17;8.80;;;;;;;1.76;51.43;104002.44;4980594;28;20550;-76
2023/01/24 01:32:43;;;;;;;18.83;9.07;;;;;;;1.74;51.24;104001.47;4981055;28;20042;-77
2023/01/24 01:35:09;;;;;;;24.38;9.65;;;;;;;1.76;51.23;104007.59;4981467;28;20629;-75
2023/01/24 01:37:35;;;;;;;23.85;9.98;;;;;;;1.70;50.93;103999.53;4981105;28;20073;-75
2023/01/24 01:40:01;;;;;;;20.45;9.68;;;;;;;1.68;51.18;104003.75;4981228;28;20034;-76
2023/01/24 01:42:44;;;;;;;15.73;9.32;;;;;;;1.72;51.20;104001.38;4979992;28;20661;-76
2023/01/24 01:45:37;;;;;;;27.35;9.07;;;;;;;1.72;51.23;104003.09;4981415;28;20037;-75
2023/01/24 01:48:13;;;;;;;17.88;9.18;;;;;;;1.68;51.10;103998.59;4981736;28;20045;-76
2023/01/24 01:50:44;;;;;;;18.52;9.60;;;;;;;1.70;51.28;104013.31;4981496;28;20041;-75
2023/01/24 01:53:12;;;;;;;20.88;10.80;;;;;;;1.75;51.26;104005.78;4981614;28;20126;-75
2023/01/24 01:55:43;;;;;;;18.15;9.27;;;;;;;1.73;51.40;104010.03;4980267;28;20037;-76
2023/01/24 01:58:09;;;;;;;20.85;9.50;;;;;;;1.80;51.14;104008.63;4979132;28;20169;-77
2023/01/24 02:00:35;;;;;;;20.00;10.40;;;;;;;1.79;51.05;104006.84;4982563;28;20041;-77
2023/01/24 02:05:55;;;;;;;20.60;9.50;;;;;;;1.78;51.07;104007.66;4980216;28;20237;-78
2023/01/24 02:08:22;;;;;;;23.85;10.07;;;;;;;1.77;51.56;104009.34;4981367;28;20782;-76
2023/01/24 02:13:43;;;;;;;15.82;8.63;;;;;;;1.82;51.06;104002.72;4974938;28;20141;-76
2023/01/24 02:16:11;;;;;;;22.13;9.70;;;;;;;1.81;51.18;104005.22;4980730;28;20053;-75
2023/01/24 02:18:40;;;;;;;20.25;10.18;;;;;;;1.85;51.24;104005.44;4977834;28;20546;-75
2023/01/24 02:21:12;;;;;;;26.02;10.95;;;;;;;1.81;51.08;104003.50;4979370;28;20101;-76
2023/01/24 02:23:46;;;;;;;21.38;9.88;;;;;;;1.79;51.11;104009.41;4977534;28;20044;-77
2023/01/24 02:26:13;;;;;;;18.73;10.07;;;;;;;1.74;51.20;104014.34;4967082;28;20752;-75
2023/01/24 02:28:55;;;;;;;20.38;10.55;;;;;;;1.79;51.49;104004.25;4978444;28;20153;-77
2023/01/24 02:31:21;;;;;;;19.73;9.95;;;;;;;1.80;51.34;104009.50;4980949;28;20397;-74
2023/01/24 02:33:46;;;;;;;24.98;10.57;;;;;;;1.83;51.31;104004.47;4977433;28;20035;-75
2023/01/24 02:36:30;;;;;;;18.40;10.25;;;;;;;1.84;51.37;104008.84;4980289;28;20637;-76
2023/01/24 02:39:02;;;;;;;19.52;9.65;;;;;;;1.86;51.24;104009.78;4980576;28;20121;-77
2023/01/24 02:41:48;;;;;;;16.73;8.55;;;;;;;1.95;51.32;104009.31;4978734;28;20038;-75
2023/01/24 02:44:22;;;;;;;22.98;9.63;;;;;;;1.97;50.89;104011.97;4977628;28;20042;-75
2023/01/24 02:46:48;;;;;;;20.88;9.88;;;;;;;1.98;51.03;104008.59;4983018;28;20034;-75
2023/01/24 02:49:13;;;;;;;22.52;9.73;;;;;;;1.91;51.02;104010.00;4981255;28;20436;-75
2023/01/24 02:54:23;;;;;;;16.52;8.82;;;;;;;1.73;51.51;104008.31;4976133;28;20050;-76
2023/01/24 02:59:33;;;;;;;16.70;8.80;;;;;;;1.73;51.57;104004.88;4976939;28;20503;-75
2023/01/24 03:01:58;;;;;;;22.45;9.95;;;;;;;1.72;51.74;104000.50;4981883;28;20133;-76
2023/01/24 03:04:24;;;;;;;17.73;9.23;;;;;;;1.78;51.78;103995.66;4979460;28;20038;-75
2023/01/24 03:06:50;;;;;;;23.58;9.57;;;;;;;1.81;51.34;103998.34;4981727;28;20130;-77
2023/01/24 03:09:18;;;;;;;22.30;9.70;;;;;;;1.80;51.43;104004.34;4981303;28;20123;-76
2023/01/24 03:11:47;;;;;;;18.00;8.63;;;;;;;1.71;51.21;103998.75;4979903;28;20026;-75
2023/01/24 03:36:19;;;;;;;16.10;7.50;;;;;;;1.83;50.48;104003.59;4984877;28;20117;-76
2023/01/24 03:41:31;;;;;;;15.93;8.60;;;;;;;1.73;51.21;104016.06;4982041;28;20038;-75
2023/01/24 03:43:56;;;;;;;19.42;8.82;;;;;;;1.76;50.83;104012.75;4982572;28;20406;-76
2023/01/24 03:46:22;;;;;;;18.58;8.20;;;;;;;1.65;50.74;104008.78;4983870;28;20552;-78
2023/01/24 03:48:49;;;;;;;19.77;8.25;;;;;;;1.63;51.07;104015.53;4983945;28;20042;-75
2023/01/24 03:54:01;;;;;;;19.15;7.60;;;;;;;1.72;50.83;104011.69;4985359;28;20436;-77
2023/01/24 03:56:33;;;;;;;17.20;7.95;;;;;;;1.79;50.50;104020.59;4980589;28;20038;-75
2023/01/24 03:59:00;;;;;;;16.05;8.27;;;;;;;1.75;50.63;104025.56;4982525;28;20037;-75
2023/01/24 04:01:29;;;;;;;14.73;8.45;;;;;;;1.76;50.76;104022.19;4980826;28;20030;-76
2023/01/24 04:04:07;;;;;;;14.95;7.45;;;;;;;1.70;50.68;104015.91;4983703;28;20034;-76
2023/01/24 04:06:33;;;;;;;16.05;7.78;;;;;;;1.77;50.56;104014.50;4980496;28;20038;-74
2023/01/24 04:09:00;;;;;;;17.63;9.13;;;;;;;1.71;50.72;104019.38;4966292;28;20034;-76
2023/01/24 04:11:26;;;;;;;19.50;8.38;;;;;;;1.70;50.78;104018.47;4982138;28;20038;-75
2023/01/24 04:14:04;;;;;;;12.50;6.93;;;;;;;1.70;50.92;104030.50;4969767;28;20688;-75
2023/01/24 04:16:33;;;;;;;16.33;7.47;;;;;;;1.71;50.79;104034.84;4980245;28;20042;-76
2023/01/24 04:19:16;;;;;;;13.10;7.18;;;;;;;1.73;50.54;104023.81;4982298;28;20046;-76
2023/01/24 04:21:41;;;;;;;23.00;8.07;;;;;;;1.62;50.77;104024.09;4981862;28;20080;-75
2023/01/24 04:24:09;;;;;;;14.00;8.27;;;;;;;1.65;51.09;104025.13;4982198;28;20042;-76
2023/01/24 04:26:37;;;;;;;17.55;7.95;;;;;;;1.66;51.05;104028.56;4980353;28;20522;-76
2023/01/24 04:29:06;;;;;;;16.17;8.18;;;;;;;1.65;51.12;104030.28;4983480;28;20052;-76
2023/01/24 04:31:31;;;;;;;14.63;7.72;;;;;;;1.70;50.87;104028.78;4980081;28;20023;-75
2023/01/24 04:34:15;;;;;;;13.98;7.45;;;;;;;1.73;51.06;104022.91;4981402;28;20129;-74
2023/01/24 04:36:41;;;;;;;13.68;7.13;;;;;;;1.72;50.87;104028.88;4963788;28;20038;-75
2023/01/24 04:39:08;;;;;;;10.43;5.78;;;;;;;1.71;50.83;104025.41;4982635;28;20030;-78
2023/01/24 04:41:42;;;;;;;14.13;6.90;;;;;;;1.71;49.91;104021.97;4981648;28;20034;-78
2023/01/24 04:44:09;;;;;;;13.85;7.45;;;;;;;1.69;50.42;104016.72;4983852;28;20051;-75
2023/01/24 04:46:34;;;;;;;17.48;7.85;;;;;;;1.74;50.37;104014.34;4980886;28;21390;-77
2023/01/24 04:48:59;;;;;;;15.60;7.75;;;;;;;1.75;49.55;104010.94;4981839;28;20038;-77
2023/01/24 04:51:35;;;;;;;12.18;6.03;;;;;;;1.65;49.27;104007.06;4980476;28;20323;-75
2023/01/24 04:54:04;;;;;;;9.80;5.30;;;;;;;1.68;48.83;104012.34;4982491;28;20042;-76
2023/01/24 04:56:30;;;;;;;11.10;5.82;;;;;;;1.82;48.30;104017.28;4980299;28;20026;-76
2023/01/24 04:58:57;;;;;;;7.75;4.65;;;;;;;1.84;48.12;104014.00;4980998;28;20128;-75
2023/01/24 05:01:23;;;;;;;10.63;6.72;;;;;;;1.80;47.67;104009.50;4982980;28;20407;-77
2023/01/24 05:03:58;;;;;;;;;;;;;;;1.83;47.40;104013.91;4981719;28;20045;-76
2023/01/24 05:06:29;;;;;;;12.63;6.55;;;;;;;1.83;47.83;104014.78;4979884;28;20140;-75
2023/01/24 05:08:56;;;;;;;;;;;;;;;1.81;47.75;104016.41;4982871;28;20046;-76
2023/01/24 05:11:27;;;;;;;12.30;6.47;;;;;;;1.77;48.15;104019.66;4981578;28;20394;-76
2023/01/24 05:13:56;;;;;;;7.32;4.45;;;;;;;1.77;47.91;104027.38;4981301;28;20041;-76
2023/01/24 05:16:22;;;;;;;13.43;5.78;;;;;;;1.81;47.32;104023.28;4982761;28;20038;-75
2023/01/24 05:18:48;;;;;;;12.05;6.90;;;;;;;1.73;47.66;104031.53;4981198;28;20101;-75
2023/01/24 05:21:16;;;;;;;9.25;5.40;;;;;;;1.75;47.67;104021.28;4983611;28;20389;-75
2023/01/24 05:23:47;;;;;;;11.75;6.57;;;;;;;1.80;47.60;104024.97;4982211;28;20061;-75
2023/01/24 05:26:12;;;;;;;10.45;6.18;;;;;;;1.78;47.25;104025.72;4982655;28;20026;-75
2023/01/24 05:28:39;;;;;;;11.55;7.15;;;;;;;1.73;47.57;104023.81;4978920;28;20031;-76
2023/01/24 05:31:08;;;;;;;14.23;6.53;;;;;;;1.78;47.57;104021.44;4966996;28;20054;-76
2023/01/24 05:33:35;;;;;;;9.45;6.03;;;;;;;1.68;46.99;104017.50;4978860;28;20046;-76
2023/01/24 05:36:10;;;;;;;10.68;5.90;;;;;;;1.66;47.29;104019.16;4982099;28;20061;-76
2023/01/24 05:38:37;;;;;;;14.05;6.35;;;;;;;1.68;47.35;104024.38;4980392;28;20038;-75
2023/01/24 05:41:06;;;;;;;8.35;5.75;;;;;;;1.70;46.92;104028.78;4968054;28;20041;-76
2023/01/24 05:43:33;;;;;;;12.50;6.30;;;;;;;1.69;47.13;104027.03;4960262;28;20062;-78
2023/01/24 05:46:00;;;;;;;12.05;6.32;;;;;;;1.74;46.54;104032.41;4985189;28;20496;-76
2023/01/24 05:48:28;;;;;;;11.80;6.18;;;;;;;1.69;47.09;104032.19;4979699;28;20038;-75
2023/01/24 05:51:02;;;;;;;13.88;6.30;;;;;;;1.65;47.14;104035.44;4981637;28;20077;-74
2023/01/24 05:53:30;;;;;;;12.10;6.68;;;;;;;1.61;47.24;104024.91;4963357;28;20411;-77
2023/01/24 05:55:59;;;;;;;11.88;6.75;;;;;;;1.69;47.46;104026.16;4981391;28;20023;-76
2023/01/24 05:58:26;;;;;;;9.40;6.30;;;;;;;1.66;47.53;104031.16;4981403;28;20041;-77
2023/01/24 06:01:12;;;;;;;10.63;6.32;;;;;;;1.75;47.25;104026.44;4982631;28;20123;-76
2023/01/24 06:03:41;;;;;;;14.27;6.90;;;;;;;1.76;47.34;104019.59;4965855;28;20092;-75
2023/01/24 06:06:09;;;;;;;10.85;6.38;;;;;;;1.64;46.96;104023.38;4981682;28;20945;-77
2023/01/24 06:08:35;;;;;;;13.13;6.70;;;;;;;1.59;47.09;104023.94;4979822;28;20973;-76
2023/01/24 06:11:05;;;;;;;12.20;7.43;;;;;;;1.61;47.11;104022.31;4980529;28;20029;-75
2023/01/24 06:13:32;;;;;;;8.85;5.75;;;;;;;1.69;46.74;104026.16;4980330;28;20504;-76
2023/01/24 06:16:02;;;;;;;12.50;6.43;;;;;;;1.63;46.98;104028.44;4981198;28;20033;-76
2023/01/24 06:18:29;;;;;;;;;;;;;;;1.41;47.30;104023.94;4980273;28;20154;-75
2023/01/24 06:20:56;;;;;;;13.55;6.30;;;;;;;1.66;47.02;104031.16;4980167;28;19972;-76
2023/01/24 06:23:27;;;;;;;9.82;6.05;;;;;;;1.67;46.42;104027.78;4979595;28;20077;-76
2023/01/24 06:25:57;;;;;;;9.82;5.60;;;;;;;1.76;46.35;104028.22;4978630;28;20191;-77
2023/01/24 06:28:24;;;;;;;14.13;6.38;;;;;;;1.67;46.40;104030.34;4979485;28;20456;-76
2023/01/24 06:31:01;;;;;;;14.48;7.43;;;;;;;1.66;46.48;104037.22;4979588;28;20514;-76
2023/01/24 06:33:58;;;;;;;11.07;6.10;;;;;;;1.59;46.52;104037.72;4978520;28;20041;-75
2023/01/24 06:36:44;;;;;;;15.48;6.57;;;;;;;1.66;46.84;104038.88;4978594;28;20045;-77
2023/01/24 06:39:14;;;;;;;16.52;7.10;;;;;;;1.66;46.53;104039.78;4980485;28;20084;-78
2023/01/24 06:41:39;;;;;;;13.45;7.15;;;;;;;1.65;46.64;104038.00;4980267;28;20033;-75
2023/01/24 06:44:07;;;;;;;14.13;7.32;;;;;;;1.55;46.94;104045.22;4964278;28;20046;-75
2023/01/24 06:46:32;;;;;;;12.63;5.95;;;;;;;1.57;46.78;104047.06;4962561;28;20049;-75
2023/01/24 06:48:58;;;;;;;14.93;6.90;;;;;;;1.28;47.24;104054.25;4979569;28;20058;-76
2023/01/24 06:51:23;;;;;;;9.65;6.25;;;;;;;1.47;46.71;104050.91;4979702;28;20768;-76
2023/01/24 06:53:48;;;;;;;9.60;6.10;;;;;;;1.52;46.62;104057.16;4977426;28;20046;-76
2023/01/24 06:56:14;;;;;;;12.63;6.78;;;;;;;1.49;46.73;104059.59;4983384;28;20037;-75
2023/01/24 06:58:39;;;;;;;13.93;6.50;;;;;;;1.39;47.09;104065.06;4965277;28;20369;-76
2023/01/24 07:01:05;;;;;;;8.75;4.90;;;;;;;1.46;46.49;104064.59;4988736;28;20825;-76
2023/01/24 07:03:31;;;;;;;9.70;5.45;;;;;;;1.58;46.03;104055.69;4982780;28;20038;-75
2023/01/24 07:05:57;;;;;;;9.05;4.88;;;;;;;1.61;46.10;104063.56;4987537;28;20035;-77
2023/01/24 07:08:23;;;;;;;12.32;6.85;;;;;;;1.62;46.10;104066.25;4985912;28;20133;-75
2023/01/24 07:10:48;;;;;;;13.35;6.55;;;;;;;1.51;46.19;104062.25;4986792;28;20863;-74
2023/01/24 07:13:14;;;;;;;10.07;6.07;;;;;;;1.51;46.27;104065.72;4986349;28;20034;-76
2023/01/24 07:15:40;;;;;;;12.68;6.13;;;;;;;1.54;46.17;104067.56;4985415;28;20044;-76
2023/01/24 07:18:13;;;;;;;8.45;5.22;;;;;;;1.60;45.96;104073.00;4986815;28;20112;-75
2023/01/24 07:20:39;;;;;;;15.50;6.95;;;;;;;1.61;46.03;104073.88;4985150;28;20034;-77
2023/01/24 07:23:12;;;;;;;11.73;6.47;;;;;;;1.57;46.52;104067.69;4983201;28;20042;-75
2023/01/24 07:25:38;;;;;;;13.02;7.25;;;;;;;1.62;46.47;104073.09;4985822;28;20041;-75
2023/01/24 07:28:04;;;;;;;14.95;6.75;;;;;;;1.55;46.78;104071.00;4987373;28;20566;-77
2023/01/24 07:30:30;;;;;;;14.23;7.78;;;;;;;1.61;46.37;104058.41;4987172;28;20038;-77
2023/01/24 07:32:55;;;;;;;13.25;6.85;;;;;;;1.52;46.95;104064.88;4985926;28;20057;-76
2023/01/24 07:35:21;;;;;;;10.88;6.45;;;;;;;1.48;47.02;104074.97;4982837;28;20046;-75
2023/01/24 07:37:47;;;;;;;13.98;7.00;;;;;;;1.55;46.74;104089.97;4985834;28;20062;-75
2023/01/24 07:40:12;;;;;;;12.68;6.90;;;;;;;1.57;47.03;104079.69;4987361;28;20030;-76
2023/01/24 07:42:39;;;;;;;15.55;6.82;;;;;;;1.52;47.15;104085.50;4984773;28;20105;-75
2023/01/24 07:45:06;;;;;;;15.18;7.88;;;;;;;1.49;46.97;104084.50;4987065;28;20061;-76
2023/01/24 07:47:32;;;;;;;10.50;5.25;;;;;;;1.14;47.33;104080.09;4984752;28;20919;-76
2023/01/24 07:49:58;;;;;;;11.00;6.22;;;;;;;1.51;46.61;104091.50;4986256;28;20132;-76
2023/01/24 07:52:24;;;;;;;11.40;6.10;;;;;;;1.62;46.05;104093.72;4982019;28;20093;-77
2023/01/24 07:54:49;;;;;;;10.52;5.80;;;;;;;1.65;45.93;104093.88;4986516;28;20507;-76
2023/01/24 07:57:16;;;;;;;10.25;5.72;;;;;;;1.66;46.16;104096.53;4981663;28;20065;-74
2023/01/24 07:59:41;;;;;;;13.15;7.50;;;;;;;1.54;46.31;104095.91;4985354;28;20119;-75
2023/01/24 08:02:10;;;;;;;12.88;7.10;;;;;;;1.56;46.46;104096.88;4985222;28;20129;-77
2023/01/24 08:04:37;;;;;;;14.93;7.30;;;;;;;1.52;46.32;104100.97;4983914;28;20030;-76
2023/01/24 08:07:18;;;;;;;12.73;6.70;;;;;;;1.57;46.31;104100.31;4986132;28;20451;-76
2023/01/24 08:09:45;;;;;;;15.77;7.07;;;;;;;1.61;46.16;104099.69;4982006;28;20439;-77
2023/01/24 08:12:11;;;;;;;10.48;5.75;;;;;;;1.32;46.51;104102.53;4980570;28;20042;-76
2023/01/24 08:14:36;;;;;;;13.15;7.35;;;;;;;1.46;46.53;104108.44;4978701;28;20773;-75
2023/01/24 08:17:02;;;;;;;15.73;7.95;;;;;;;1.51;46.20;104117.28;4982353;28;20052;-76
2023/01/24 08:19:27;;;;;;;13.23;6.78;;;;;;;1.46;46.57;104111.00;4980751;28;20679;-77
2023/01/24 08:21:53;;;;;;;10.55;5.90;;;;;;;1.45;46.18;104114.38;4980354;28;20122;-76
2023/01/24 08:24:18;;;;;;;10.93;5.90;;;;;;;1.53;45.55;104122.50;4980520;28;20893;-76
2023/01/24 08:26:46;;;;;;;10.23;6.22;;;;;;;1.65;45.72;104119.66;4982920;28;20069;-77
2023/01/24 08:29:12;;;;;;;13.95;6.95;;;;;;;1.63;45.99;104123.84;4964602;28;20038;-75
2023/01/24 08:31:37;;;;;;;14.18;7.55;;;;;;;1.55;45.66;104131.22;4979231;28;20046;-77
2023/01/24 08:34:03;;;;;;;13.20;6.55;;;;;;;1.52;46.14;104120.72;4960578;28;20165;-75
2023/01/24 08:36:28;;;;;;;14.75;7.60;;;;;;;1.62;45.90;104127.25;4979487;28;20034;-77
2023/01/24 08:38:54;;;;;;;12.93;7.25;;;;;;;1.60;45.66;104128.84;4979704;28;20039;-76
2023/01/24 08:41:19;;;;;;;17.52;8.32;;;;;;;1.60;46.05;104128.84;4979279;28;20026;-76
2023/01/24 08:43:45;;;;;;;16.13;7.85;;;;;;;1.68;46.20;104130.09;4980040;28;20046;-74
2023/01/24 08:46:10;;;;;;;11.65;6.88;;;;;;;1.68;46.04;104122.38;4980651;28;20060;-75
2023/01/24 08:48:36;;;;;;;13.73;7.25;;;;;;;1.54;46.40;104129.41;4964623;28;20068;-75
2023/01/24 08:51:06;;;;;;;12.20;6.40;;;;;;;1.43;46.43;104134.03;4965315;28;20034;-76
2023/01/24 08:53:32;;;;;;;10.88;6.30;;;;;;;1.48;45.90;104129.09;4979275;28;20062;-74
2023/01/24 08:55:57;;;;;;;14.48;6.60;;;;;;;1.56;45.62;104126.94;4984154;28;20647;-75
2023/01/24 08:58:23;;;;;;;11.77;6.80;;;;;;;1.59;45.81;104127.94;4978226;28;20046;-76
2023/01/24 09:00:48;;;;;;;10.25;6.15;;;;;;;1.57;45.91;104133.84;4981484;28;20034;-74
2023/01/24 09:03:16;;;;;;;11.98;6.05;;;;;;;1.46;46.07;104133.31;4978986;28;20088;-77
2023/01/24 09:05:42;;;;;;;16.90;7.30;;;;;;;1.64;45.90;104123.94;4980317;28;20320;-74
2023/01/24 09:08:08;;;;;;;10.23;6.28;;;;;;;1.32;46.25;104132.56;4980495;28;20455;-77
2023/01/24 09:10:34;;;;;;;16.63;7.70;;;;;;;1.51;45.95;104130.16;4977965;28;20786;-74
2023/01/24 09:13:00;;;;;;;9.93;6.55;;;;;;;1.47;45.87;104127.34;4979157;28;20137;-76
2023/01/24 09:15:25;;;;;;;10.70;6.00;;;;;;;1.55;45.39;104122.56;4976520;28;20539;-76
2023/01/24 09:17:51;;;;;;;12.13;5.82;;;;;;;1.59;45.50;104133.09;4978484;28;20049;-76
2023/01/24 09:20:16;;;;;;;13.80;7.18;;;;;;;1.69;45.74;104124.16;4978400;28;20499;-76
2023/01/24 09:22:42;;;;;;;13.77;7.20;;;;;;;1.41;45.85;104127.03;4963583;28;20149;-74
2023/01/24 09:25:08;;;;;;;16.42;7.65;;;;;;;1.57;45.63;104126.09;4980639;28;20492;-76
2023/01/24 09:27:35;;;;;;;12.60;6.47;;;;;;;1.50;45.39;104128.38;4979096;28;20065;-77
2023/01/24 09:30:00;;;;;;;12.48;7.63;;;;;;;1.58;45.75;104122.75;4980007;28;20499;-75
2023/01/24 09:32:26;;;;;;;13.05;6.55;;;;;;;1.61;45.62;104128.91;4979560;28;20054;-74
2023/01/24 09:34:51;;;;;;;11.85;6.78;;;;;;;1.72;45.56;104130.31;4961358;28;20089;-74
2023/01/24 09:37:20;;;;;;;11.23;6.55;;;;;;;1.72;44.93;104121.72;4978166;28;20434;-75
2023/01/24 09:39:46;;;;;;;13.77;6.85;;;;;;;1.69;45.35;104116.41;4978673;28;20045;-75
2023/01/24 09:42:31;;;;;;;12.60;6.22;;;;;;;1.75;45.28;104124.44;4979020;28;20042;-75
2023/01/24 09:45:23;;;;;;;14.00;7.07;;;;;;;1.78;45.60;104122.03;4976583;28;20046;-74
2023/01/24 09:48:05;;;;;;;12.35;6.80;;;;;;;1.82;45.17;104115.28;4961044;28;20038;-76
2023/01/24 09:50:37;;;;;;;9.60;6.22;;;;;;;1.89;44.97;104122.56;4976048;28;20034;-75
2023/01/24 09:53:03;;;;;;;16.10;7.55;;;;;;;1.59;46.11;104127.94;4977226;28;20050;-75
2023/01/24 09:55:37;;;;;;;15.80;7.55;;;;;;;1.60;45.83;104126.28;4974889;28;20598;-75
2023/01/24 09:58:08;;;;;;;12.77;7.70;;;;;;;1.54;45.91;104118.22;4979329;28;20831;-75
2023/01/24 10:00:37;;;;;;;12.80;6.22;;;;;;;1.65;44.60;104122.22;4974725;28;20548;-74
2023/01/24 10:03:08;;;;;;;11.18;7.07;;;;;;;1.62;44.78;104111.78;4978215;28;20042;-76
2023/01/24 10:05:47;;;;;;;10.98;6.68;;;;;;;1.84;44.56;104104.28;4962631;28;20045;-75
2023/01/24 10:08:23;;;;;;;9.60;6.20;;;;;;;1.67;44.42;104111.16;4979420;28;20066;-77
2023/01/24 10:10:57;;;;;;;11.20;6.25;;;;;;;1.89;44.39;104105.38;4979627;28;20034;-75
2023/01/24 10:13:50;;;;;;;12.38;6.72;;;;;;;1.87;44.73;104101.81;4978232;28;20046;-77
2023/01/24 10:16:20;;;;;;;12.15;7.30;;;;;;;1.77;44.66;104111.63;4978968;28;20289;-74
2023/01/24 10:19:18;;;;;;;13.70;8.10;;;;;;;1.67;44.79;104106.00;4981000;28;20046;-74
2023/01/24 10:21:59;;;;;;;14.23;7.75;;;;;;;1.74;44.21;104102.03;4981407;28;20030;-75
2023/01/24 10:24:30;;;;;;;18.35;10.10;;;;;;;1.69;44.69;104098.38;4961687;28;20068;-75
2023/01/24 10:26:56;;;;;;;20.27;9.73;;;;;;;1.66;44.74;104098.19;4980920;28;20042;-75
2023/01/24 10:29:29;;;;;;;16.50;8.43;;;;;;;1.89;44.35;104094.16;4979714;28;20381;-77
2023/01/24 10:32:02;;;;;;;14.10;7.18;;;;;;;1.82;44.34;104110.13;4979024;28;20034;-74
2023/01/24 10:34:33;;;;;;;16.42;8.13;;;;;;;1.94;44.36;104109.03;4977069;28;20030;-77
2023/01/24 10:37:19;;;;;;;17.23;8.43;;;;;;;1.73;44.84;104102.88;4980388;28;20293;-75
2023/01/24 10:39:45;;;;;;;16.65;8.02;;;;;;;1.48;45.51;104109.41;4986222;28;20037;-74
2023/01/24 10:42:24;;;;;;;15.40;9.10;;;;;;;1.69;45.45;104103.53;4979197;28;20136;-76
2023/01/24 10:44:51;;;;;;;12.95;8.23;;;;;;;1.70;44.71;104111.31;4980882;28;20751;-76
2023/01/24 10:47:26;;;;;;;14.68;8.20;;;;;;;1.81;44.47;104108.38;4978040;28;20050;-78
2023/01/24 10:49:58;;;;;;;13.38;7.72;;;;;;;1.84;44.48;104109.44;4980962;28;20034;-75
2023/01/24 10:52:24;;;;;;;11.13;6.30;;;;;;;1.63;44.83;104105.78;4959228;28;20537;-75
2023/01/24 10:54:54;;;;;;;13.52;7.22;;;;;;;1.56;44.94;104102.03;4981277;28;20128;-75
2023/01/24 10:57:32;;;;;;;12.43;7.07;;;;;;;1.68;44.79;104101.72;4960005;28;20088;-75
2023/01/24 11:00:13;;;;;;;16.40;5.63;;;;;;;1.59;44.82;104096.13;4980797;28;20030;-75
2023/01/24 11:02:39;;;;;;;13.80;7.27;;;;;;;1.59;44.41;104094.44;4989717;28;20208;-74
2023/01/24 11:05:06;;;;;;;13.02;6.72;;;;;;;1.67;44.80;104094.81;5003768;28;20334;-75
2023/01/24 11:07:40;;;;;;;13.73;8.13;;;;;;;1.59;44.61;104090.97;5000126;28;20023;-75
2023/01/24 11:10:18;;;;;;;17.98;7.90;;;;;;;1.86;44.17;104097.50;5003908;28;20046;-74
2023/01/24 11:12:56;;;;;;;11.75;6.97;;;;;;;1.94;44.23;104098.72;4995622;28;20073;-77
2023/01/24 11:15:33;;;;;;;17.13;8.88;;;;;;;1.79;43.92;104103.16;4982044;28;20038;-75
2023/01/24 11:18:16;;;;;;;14.73;7.10;;;;;;;1.94;44.18;104096.16;4979777;28;20048;-76
2023/01/24 11:20:44;;;;;;;16.33;7.85;;;;;;;2.03;44.00;104097.41;4979529;28;20076;-76
2023/01/24 11:23:16;;;;;;;17.45;9.38;;;;;;;2.04;43.68;104094.00;4979513;28;20046;-75
2023/01/24 11:25:52;;;;;;;12.60;7.78;;;;;;;2.05;43.99;104094.09;4958073;28;20034;-75
2023/01/24 11:28:32;;;;;;;15.52;8.13;;;;;;;2.05;43.67;104095.78;4976745;28;20038;-77
2023/01/24 11:31:06;;;;;;;12.82;7.00;;;;;;;1.92;44.17;104090.03;4979311;28;20416;-77
2023/01/24 11:33:55;;;;;;;16.90;8.32;;;;;;;1.76;44.39;104094.38;4975170;28;20042;-76
2023/01/24 11:36:39;;;;;;;19.70;9.18;;;;;;;1.66;45.08;104093.94;4978868;28;20801;-75
2023/01/24 11:39:36;;;;;;;19.00;9.02;;;;;;;1.72;44.31;104093.34;4978675;28;20511;-77
2023/01/24 11:42:38;;;;;;;13.75;7.90;;;;;;;1.86;44.26;104084.59;4981188;28;20057;-76
2023/01/24 11:45:39;;;;;;;15.70;8.85;;;;;;;1.52;44.24;104094.94;4982834;28;20034;-77
2023/01/24 11:48:25;;;;;;;17.60;9.20;;;;;;;1.51;44.78;104086.34;4940417;28;20064;-75
2023/01/24 11:51:03;;;;;;;15.52;7.68;;;;;;;1.61;44.33;104079.91;4980516;28;20034;-77
2023/01/24 11:53:47;;;;;;;14.75;7.85;;;;;;;1.72;44.16;104070.13;4958955;28;20558;-75
2023/01/24 11:56:29;;;;;;;18.00;7.85;;;;;;;1.98;43.10;104067.94;4982005;28;20034;-76
2023/01/24 11:59:14;;;;;;;16.13;8.38;;;;;;;1.93;43.17;104068.59;4979519;28;20047;-75
2023/01/24 12:01:54;;;;;;;22.08;9.32;;;;;;;1.98;43.56;104065.34;4979967;28;20041;-76
2023/01/24 12:04:41;;;;;;;14.18;8.27;;;;;;;1.92;43.53;104059.06;4978195;28;20038;-75
2023/01/24 12:07:22;;;;;;;14.50;8.82;;;;;;;1.89;43.85;104058.06;4978203;28;20046;-75
2023/01/24 12:09:56;;;;;;;14.95;8.20;;;;;;;1.93;43.70;104063.44;4980407;28;20057;-75
2023/01/24 12:12:24;;;;;;;14.18;8.35;;;;;;;1.58;43.60;104066.91;4978710;28;20085;-75
2023/01/24 12:15:14;;;;;;;17.73;8.50;;;;;;;1.79;43.26;104059.28;4979060;28;20096;-76
2023/01/24 12:17:42;;;;;;;11.88;7.60;;;;;;;1.73;43.76;104053.88;4979219;28;20042;-75